Time;durP1;ratioP1;P1;durP2;ratioP2;P2;SDS_P1;SDS_P2;PMS_P1;PMS_P2;Temp;Humidity;BMP_temperature;BMP_pressure;BME280_temperature;BME280_humidity;BME280_pressure;Samples;Min_cycle;Max_cycle;Signal;HPM_P1;HPM_P2
2024/02/22 00:01:50;;;;;;;0.40;0.40;;;13.20;81.70;;;;;;10374906;28;20226;-78
2024/02/22 00:06:52;;;;;;;0.40;0.40;;;13.20;81.80;;;;;;10370895;28;20629;-76
2024/02/22 00:11:58;;;;;;;0.50;0.50;;;13.30;83.50;;;;;;10359620;28;20298;-77
2024/02/22 00:17:01;;;;;;;0.60;0.60;;;13.30;82.40;;;;;;10364285;28;20718;-77
2024/02/22 00:22:03;;;;;;;0.40;0.40;;;13.30;81.90;;;;;;10371120;28;20211;-78
2024/02/22 00:27:07;;;;;;;0.50;0.50;;;13.20;83.20;;;;;;10378231;28;20252;-76
2024/02/22 00:32:10;;;;;;;0.50;0.50;;;13.20;83.60;;;;;;10452137;22;20244;-82
2024/02/22 00:37:12;;;;;;;0.40;0.40;;;13.20;84.30;;;;;;10478398;28;20705;-82
2024/02/22 00:42:16;;;;;;;0.40;0.40;;;13.20;84.90;;;;;;10502500;28;20859;-82
2024/02/22 00:47:18;;;;;;;0.40;0.40;;;13.20;85.10;;;;;;10502271;28;20201;-82
2024/02/22 00:52:20;;;;;;;0.50;0.50;;;13.10;85.40;;;;;;10502783;28;20286;-82
2024/02/22 00:57:24;;;;;;;0.40;0.40;;;13.10;86.60;;;;;;10502162;28;20224;-82
2024/02/22 01:02:27;;;;;;;0.40;0.40;;;13.00;86.80;;;;;;10502934;28;20246;-82
2024/02/22 01:07:30;;;;;;;0.40;0.40;;;13.00;87.10;;;;;;10502982;28;20200;-82
2024/02/22 01:12:33;;;;;;;0.40;0.40;;;13.00;88.20;;;;;;10502553;28;20574;-82
2024/02/22 01:17:36;;;;;;;0.50;0.50;;;13.00;88.50;;;;;;10500049;28;20216;-82
2024/02/22 01:22:39;;;;;;;0.50;0.50;;;13.00;89.60;;;;;;10500220;28;20228;-82
2024/02/22 01:27:44;;;;;;;0.47;0.47;;;12.90;90.40;;;;;;10501873;28;20196;-82
2024/02/22 01:32:46;;;;;;;0.47;0.47;;;12.80;90.80;;;;;;10502276;28;20232;-82
2024/02/22 01:37:48;;;;;;;0.40;0.40;;;12.70;91.40;;;;;;10503123;28;20212;-83
2024/02/22 01:42:52;;;;;;;0.40;0.40;;;12.70;91.70;;;;;;10501794;28;20281;-82
2024/02/22 01:47:55;;;;;;;0.50;0.50;;;12.60;92.00;;;;;;10499729;28;20571;-83
2024/02/22 01:52:58;;;;;;;0.60;0.60;;;12.60;92.10;;;;;;10497006;28;20653;-83
2024/02/22 01:58:02;;;;;;;0.50;0.50;;;12.50;92.80;;;;;;10485214;28;20228;-82
2024/02/22 02:03:05;;;;;;;0.50;0.50;;;12.40;92.80;;;;;;10478860;28;20567;-83
2024/02/22 02:08:07;;;;;;;0.47;0.47;;;12.40;93.20;;;;;;10489082;28;20790;-83
2024/02/22 02:13:11;;;;;;;0.50;0.50;;;12.30;93.60;;;;;;10509550;28;20213;-82
2024/02/22 02:18:13;;;;;;;0.50;0.50;;;12.30;94.10;;;;;;10506439;28;20262;-82
2024/02/22 02:23:25;;;;;;;0.50;0.50;;;12.20;94.60;;;;;;10508053;28;20219;-83
2024/02/22 02:28:29;;;;;;;0.50;0.50;;;12.20;94.60;;;;;;10508621;28;20188;-82
2024/02/22 02:33:31;;;;;;;0.50;0.50;;;12.10;94.80;;;;;;10509563;28;20289;-82
2024/02/22 02:38:34;;;;;;;0.50;0.50;;;12.20;94.90;;;;;;10507322;28;20212;-82
2024/02/22 02:43:37;;;;;;;0.40;0.40;;;12.10;95.00;;;;;;10508765;28;20262;-83
2024/02/22 02:48:40;;;;;;;0.50;0.50;;;12.10;95.30;;;;;;10509181;28;20223;-82
2024/02/22 02:53:43;;;;;;;0.50;0.50;;;12.10;95.50;;;;;;10507816;28;20220;-82
2024/02/22 02:58:47;;;;;;;0.53;0.53;;;12.10;95.80;;;;;;10508057;28;20204;-82
2024/02/22 03:03:50;;;;;;;0.50;0.50;;;12.00;96.10;;;;;;10504059;28;20644;-82
2024/02/22 03:08:52;;;;;;;0.50;0.50;;;12.00;96.30;;;;;;10506204;28;20201;-83
2024/02/22 03:13:56;;;;;;;0.57;0.57;;;11.90;96.40;;;;;;10488361;28;20220;-82
2024/02/22 03:18:58;;;;;;;0.60;0.60;;;11.90;96.90;;;;;;10500729;28;20220;-82
2024/02/22 03:24:00;;;;;;;0.50;0.50;;;11.90;97.20;;;;;;10505475;28;20219;-82
2024/02/22 03:29:04;;;;;;;0.60;0.60;;;11.70;97.70;;;;;;10506598;28;20201;-82
2024/02/22 03:34:08;;;;;;;0.60;0.60;;;11.60;98.00;;;;;;10503393;28;20232;-83
2024/02/22 03:39:11;;;;;;;0.60;0.60;;;11.50;98.40;;;;;;10504187;28;20215;-82
2024/02/22 03:44:15;;;;;;;0.50;0.50;;;11.50;98.40;;;;;;10503213;28;20208;-82
2024/02/22 03:49:17;;;;;;;0.80;0.80;;;11.50;98.50;;;;;;10504627;28;20574;-82
2024/02/22 03:54:20;;;;;;;0.60;0.60;;;11.50;98.40;;;;;;10504462;28;20216;-82
2024/02/22 03:59:24;;;;;;;0.80;0.80;;;11.50;99.20;;;;;;10503204;28;20224;-82
2024/02/22 04:04:28;;;;;;;1.63;1.63;;;11.30;99.80;;;;;;10503548;28;20208;-82
2024/02/22 04:09:32;;;;;;;1.80;1.80;;;11.10;99.90;;;;;;10502517;28;20180;-82
2024/02/22 04:14:35;;;;;;;2.13;2.13;;;10.90;99.90;;;;;;10501251;28;20240;-82
2024/02/22 04:19:38;;;;;;;2.30;2.30;;;10.80;99.90;;;;;;10498014;28;20282;-82
2024/02/22 04:24:40;;;;;;;2.40;2.40;;;10.60;99.90;;;;;;10500937;28;20212;-82
2024/02/22 04:29:44;;;;;;;2.80;2.80;;;10.50;99.90;;;;;;10500224;28;20196;-82
2024/02/22 04:34:46;;;;;;;2.60;2.60;;;10.50;99.90;;;;;;10500202;28;20731;-82
2024/02/22 04:39:48;;;;;;;2.70;2.70;;;10.50;99.90;;;;;;10500812;28;20221;-82
2024/02/22 04:44:53;;;;;;;2.57;2.57;;;10.50;99.90;;;;;;10502900;28;20569;-83
2024/02/22 04:49:56;;;;;;;2.50;2.50;;;10.50;99.90;;;;;;10499281;28;20255;-81
2024/02/22 04:54:59;;;;;;;2.60;2.60;;;10.50;99.90;;;;;;10510482;28;20270;-81
2024/02/22 05:00:05;;;;;;;2.30;2.30;;;10.50;99.90;;;;;;10519484;28;20208;-83
2024/02/22 05:05:07;;;;;;;2.50;2.50;;;10.50;99.90;;;;;;10525417;28;20185;-82
2024/02/22 05:10:10;;;;;;;3.40;3.40;;;10.50;99.90;;;;;;10521496;28;20622;-82
2024/02/22 05:15:14;;;;;;;3.50;3.50;;;10.40;99.90;;;;;;10507908;28;20216;-82
2024/02/22 05:20:16;;;;;;;3.90;3.90;;;10.40;99.90;;;;;;10489584;28;20240;-82
2024/02/22 05:25:19;;;;;;;4.67;4.67;;;10.40;99.90;;;;;;10500139;28;20204;-83
2024/02/22 05:30:22;;;;;;;4.93;4.93;;;10.30;99.90;;;;;;10502755;28;20216;-83
2024/02/22 05:35:25;;;;;;;4.50;4.50;;;10.30;99.90;;;;;;10500062;28;20211;-83
2024/02/22 05:40:27;;;;;;;5.70;5.70;;;10.30;99.90;;;;;;10505208;28;20221;-79
2024/02/22 05:45:37;;;;;;;4.40;4.40;;;10.30;99.90;;;;;;10506152;28;20200;-79
2024/02/22 05:50:40;;;;;;;5.33;5.33;;;10.20;99.90;;;;;;10505682;28;20224;-79
2024/02/22 05:55:42;;;;;;;4.83;4.83;;;10.20;99.90;;;;;;10501120;28;20253;-79
2024/02/22 06:00:46;;;;;;;5.40;5.40;;;10.20;99.90;;;;;;10507700;28;20228;-81
2024/02/22 06:05:48;;;;;;;5.50;5.50;;;10.20;99.90;;;;;;10508917;28;20211;-80
2024/02/22 06:10:51;;;;;;;4.80;4.80;;;10.20;99.90;;;;;;10505753;28;20892;-80
2024/02/22 06:15:55;;;;;;;4.80;4.80;;;10.10;99.90;;;;;;10507642;28;20204;-81
2024/02/22 06:20:58;;;;;;;4.90;4.90;;;10.10;99.90;;;;;;10461939;28;20216;-80
2024/02/22 06:26:00;;;;;;;4.50;4.50;;;10.10;99.90;;;;;;10485865;28;20181;-80
2024/02/22 06:31:04;;;;;;;5.00;5.00;;;10.10;99.90;;;;;;10484268;28;20715;-80
2024/02/22 06:36:08;;;;;;;3.90;3.90;;;10.10;99.90;;;;;;10491864;28;20189;-81
2024/02/22 06:41:10;;;;;;;5.50;5.50;;;10.10;99.90;;;;;;10483952;28;20220;-80
2024/02/22 06:46:16;;;;;;;5.00;5.00;;;10.10;99.90;;;;;;10482605;28;20613;-80
2024/02/22 06:51:20;;;;;;;5.00;5.00;;;10.10;99.90;;;;;;10464858;22;20659;-75
2024/02/22 06:56:23;;;;;;;4.67;4.67;;;10.10;99.90;;;;;;10409838;28;20202;-79
2024/02/22 07:01:28;;;;;;;5.00;5.00;;;10.10;99.90;;;;;;10373461;28;20218;-79
2024/02/22 07:06:31;;;;;;;4.20;4.20;;;10.10;99.90;;;;;;10411864;28;20202;-77
2024/02/22 07:11:33;;;;;;;3.20;3.20;;;10.10;99.90;;;;;;10373510;28;20260;-78
2024/02/22 07:16:37;;;;;;;3.87;3.87;;;10.10;99.90;;;;;;10410298;28;20201;-77
2024/02/22 07:21:39;;;;;;;4.33;4.33;;;10.10;99.90;;;;;;10374724;28;20695;-75
2024/02/22 07:26:41;;;;;;;4.70;4.70;;;10.10;99.90;;;;;;10410825;28;20564;-77
2024/02/22 07:31:45;;;;;;;4.07;4.07;;;10.20;99.90;;;;;;10374240;28;20229;-77
2024/02/22 07:36:47;;;;;;;4.67;4.67;;;10.20;99.90;;;;;;10410022;28;20198;-77
2024/02/22 07:41:50;;;;;;;4.03;4.03;;;10.20;99.90;;;;;;10375122;28;20767;-77
2024/02/22 07:46:54;;;;;;;4.60;4.60;;;10.20;99.90;;;;;;10408943;28;20209;-77
2024/02/22 07:51:57;;;;;;;3.67;3.67;;;10.20;99.90;;;;;;10374121;28;20227;-77
2024/02/22 07:56:59;;;;;;;3.90;3.90;;;10.20;99.90;;;;;;10408104;28;20581;-78
2024/02/22 08:02:03;;;;;;;3.93;3.93;;;10.30;99.90;;;;;;10375772;28;20221;-77
2024/02/22 08:07:08;;;;;;;4.10;4.10;;;10.20;99.90;;;;;;10406100;28;20236;-78
2024/02/22 08:12:10;;;;;;;3.67;3.67;;;10.20;99.90;;;;;;10375618;28;20226;-77
2024/02/22 08:17:17;;;;;;;3.90;3.90;;;10.20;99.90;;;;;;10406318;28;20210;-77
2024/02/22 08:22:19;;;;;;;3.60;3.60;;;10.30;99.90;;;;;;10375319;28;20276;-77
2024/02/22 08:27:21;;;;;;;3.60;3.60;;;10.30;99.90;;;;;;10406028;28;20194;-77
2024/02/22 08:32:25;;;;;;;3.53;3.53;;;10.30;99.90;;;;;;10375692;28;20716;-75
2024/02/22 08:37:27;;;;;;;3.20;3.20;;;10.30;99.90;;;;;;10404515;28;20625;-77
2024/02/22 08:42:30;;;;;;;3.80;3.80;;;10.30;99.90;;;;;;10375875;28;20218;-79
2024/02/22 08:47:33;;;;;;;3.50;3.50;;;10.40;99.90;;;;;;10402593;28;20198;-79
2024/02/22 08:52:37;;;;;;;2.73;2.73;;;10.40;99.90;;;;;;10376033;28;20222;-78
2024/02/22 08:57:39;;;;;;;3.20;3.20;;;10.40;99.90;;;;;;10402696;28;20267;-77
2024/02/22 09:02:44;;;;;;;2.90;2.90;;;10.50;99.90;;;;;;10374741;28;20245;-75
2024/02/22 09:07:47;;;;;;;2.33;2.33;;;10.60;99.90;;;;;;10372621;28;20248;-76
2024/02/22 09:12:50;;;;;;;2.23;2.23;;;10.60;99.90;;;;;;10401948;28;20222;-75
2024/02/22 09:17:53;;;;;;;1.53;1.53;;;10.80;99.90;;;;;;10376204;28;20225;-77
2024/02/22 09:22:56;;;;;;;2.10;2.10;;;10.90;99.90;;;;;;10401053;28;20228;-79
2024/02/22 09:27:58;;;;;;;1.57;1.57;;;11.00;99.90;;;;;;10375523;28;20621;-77
2024/02/22 09:33:02;;;;;;;1.10;1.10;;;11.10;99.90;;;;;;10400253;28;20267;-79
2024/02/22 09:38:06;;;;;;;1.40;1.40;;;11.30;99.90;;;;;;10376675;28;20218;-77
2024/02/22 09:43:08;;;;;;;1.60;1.60;;;11.40;99.90;;;;;;10399616;28;20221;-75
2024/02/22 09:48:12;;;;;;;2.30;2.30;;;11.30;99.90;;;;;;10377246;28;20241;-76
2024/02/22 09:53:15;;;;;;;2.00;2.00;;;11.20;99.90;;;;;;10397535;28;20230;-75
2024/02/22 09:58:19;;;;;;;1.90;1.90;;;11.20;99.90;;;;;;10376817;28;20692;-77
2024/02/22 10:03:31;;;;;;;2.10;2.10;;;11.10;99.90;;;;;;10389983;28;20187;-77
2024/02/22 10:08:33;;;;;;;1.33;1.33;;;11.10;99.90;;;;;;10364251;28;20198;-78
2024/02/22 10:13:35;;;;;;;1.37;1.37;;;11.20;99.90;;;;;;10360509;28;20215;-76
2024/02/22 10:18:40;;;;;;;1.40;1.40;;;11.30;99.90;;;;;;10362451;28;20226;-77
2024/02/22 10:23:44;;;;;;;1.40;1.40;;;11.30;99.90;;;;;;10371115;28;20207;-77
2024/02/22 10:28:54;;;;;;;1.20;1.20;;;11.40;99.90;;;;;;10379285;28;20792;-76
2024/02/22 10:34:02;;;;;;;0.60;0.60;;;11.40;99.90;;;;;;10382079;28;20209;-75
2024/02/22 10:39:05;;;;;;;0.80;0.80;;;11.50;99.90;;;;;;10373638;28;20637;-77
2024/02/22 10:44:07;;;;;;;0.80;0.80;;;11.60;99.90;;;;;;10380439;28;20217;-77
2024/02/22 10:49:13;;;;;;;0.80;0.80;;;11.70;99.90;;;;;;10388018;28;20227;-76
2024/02/22 10:54:17;;;;;;;0.90;0.90;;;11.80;99.90;;;;;;10370098;28;20218;-75
2024/02/22 10:59:21;;;;;;;0.70;0.70;;;11.80;99.90;;;;;;10385822;28;20657;-75
2024/02/22 11:04:25;;;;;;;0.90;0.90;;;11.80;99.90;;;;;;10378939;28;20554;-75
2024/02/22 11:09:27;;;;;;;1.10;1.10;;;11.70;99.90;;;;;;10390223;28;20521;-78
2024/02/22 11:14:32;;;;;;;0.90;0.90;;;11.70;99.90;;;;;;10372391;28;20195;-80
2024/02/22 11:19:35;;;;;;;1.77;1.77;;;11.60;99.90;;;;;;10380971;28;20227;-77
2024/02/22 11:24:38;;;;;;;1.93;1.93;;;11.50;99.90;;;;;;10374082;28;20856;-77
2024/02/22 11:29:40;;;;;;;2.40;2.40;;;11.50;99.90;;;;;;10381205;28;20264;-77
2024/02/22 11:34:44;;;;;;;2.10;2.10;;;11.40;99.90;;;;;;10372197;28;20574;-76
2024/02/22 11:39:46;;;;;;;2.80;2.80;;;11.40;99.90;;;;;;10378676;28;20233;-75
2024/02/22 11:44:49;;;;;;;2.70;2.70;;;11.30;99.90;;;;;;10386717;28;20202;-77
2024/02/22 11:49:53;;;;;;;2.23;2.23;;;11.30;99.90;;;;;;10375723;28;20222;-78
2024/02/22 11:54:55;;;;;;;3.43;3.43;;;11.30;99.90;;;;;;10384754;28;20214;-79
2024/02/22 11:59:58;;;;;;;3.77;3.77;;;11.30;99.90;;;;;;10375457;28;20222;-77
2024/02/22 12:05:02;;;;;;;3.57;3.57;;;11.40;99.90;;;;;;10376441;28;20198;-78
2024/02/22 12:10:06;;;;;;;4.33;4.33;;;11.50;99.90;;;;;;10375025;28;20226;-77
2024/02/22 12:15:09;;;;;;;3.87;3.87;;;11.60;99.90;;;;;;10381166;28;20195;-77
2024/02/22 12:20:15;;;;;;;3.50;3.50;;;11.80;99.90;;;;;;10355277;28;20257;-76
2024/02/22 12:25:17;;;;;;;3.07;3.07;;;11.80;99.90;;;;;;10376081;28;20217;-76
2024/02/22 12:30:20;;;;;;;2.30;2.30;;;11.80;99.90;;;;;;10366444;28;20273;-76
2024/02/22 12:35:24;;;;;;;2.70;2.70;;;11.70;99.90;;;;;;10375809;28;20430;-76
2024/02/22 12:40:26;;;;;;;2.60;2.60;;;11.80;99.90;;;;;;10368761;28;20261;-76
2024/02/22 12:45:28;;;;;;;2.20;2.20;;;11.90;99.90;;;;;;10375891;28;20213;-75
2024/02/22 12:50:33;;;;;;;2.50;2.50;;;12.10;99.90;;;;;;10435393;22;20237;-79
2024/02/22 12:55:36;;;;;;;1.87;1.87;;;12.20;99.90;;;;;;10469543;28;20197;-79
2024/02/22 13:00:38;;;;;;;1.33;1.33;;;12.30;99.90;;;;;;10459983;28;20229;-79
2024/02/22 13:05:42;;;;;;;1.50;1.50;;;12.30;99.90;;;;;;10458695;28;20208;-79
2024/02/22 13:10:46;;;;;;;1.83;1.83;;;12.20;99.90;;;;;;10458657;28;20225;-78
2024/02/22 13:15:48;;;;;;;1.90;1.90;;;12.10;99.90;;;;;;10457584;28;20531;-78
2024/02/22 13:20:52;;;;;;;1.60;1.60;;;11.90;99.90;;;;;;10458612;28;20225;-78
2024/02/22 13:25:55;;;;;;;2.00;2.00;;;11.80;99.90;;;;;;10459281;28;20202;-78
2024/02/22 13:30:58;;;;;;;2.30;2.30;;;11.70;99.90;;;;;;10458579;28;20220;-78
2024/02/22 13:36:02;;;;;;;3.10;3.10;;;11.60;99.90;;;;;;10458071;28;20205;-78
2024/02/22 13:41:04;;;;;;;3.30;3.30;;;11.60;99.90;;;;;;10458433;28;20225;-78
2024/02/22 13:46:07;;;;;;;3.10;3.10;;;11.60;99.90;;;;;;10459137;28;20189;-78
2024/02/22 13:51:11;;;;;;;4.03;4.03;;;11.50;99.90;;;;;;10459073;28;20225;-78
2024/02/22 13:56:13;;;;;;;4.20;4.20;;;11.50;99.90;;;;;;10459486;28;20740;-79
2024/02/22 14:01:17;;;;;;;4.23;4.23;;;11.40;99.90;;;;;;10464095;28;20787;-78
2024/02/22 14:06:21;;;;;;;5.47;5.47;;;11.40;99.90;;;;;;10466977;28;20204;-79
2024/02/22 14:11:23;;;;;;;5.07;5.07;;;11.30;99.90;;;;;;10468467;28;20217;-78
2024/02/22 14:16:27;;;;;;;5.20;5.20;;;11.30;99.90;;;;;;10468475;28;20204;-78
2024/02/22 14:21:31;;;;;;;4.20;4.20;;;11.30;99.90;;;;;;10451379;28;20229;-78
2024/02/22 14:26:33;;;;;;;3.70;3.70;;;11.30;99.90;;;;;;10466975;28;20263;-78
2024/02/22 14:31:35;;;;;;;4.50;4.50;;;11.40;99.90;;;;;;10462031;28;20217;-78
2024/02/22 14:36:40;;;;;;;5.30;5.30;;;11.40;99.90;;;;;;10465127;28;20205;-78
2024/02/22 14:41:43;;;;;;;4.70;4.70;;;11.40;99.90;;;;;;10461153;28;20726;-78
2024/02/22 14:46:45;;;;;;;3.50;3.50;;;11.40;99.90;;;;;;10462233;28;20271;-78
2024/02/22 14:51:49;;;;;;;4.43;4.43;;;11.30;99.90;;;;;;10460768;28;20253;-78
2024/02/22 14:56:51;;;;;;;1.50;1.50;;;11.30;99.90;;;;;;10461088;28;20628;-78
2024/02/22 15:01:53;;;;;;;4.67;4.67;;;11.30;99.90;;;;;;10461084;28;20232;-78
2024/02/22 15:06:57;;;;;;;3.70;3.70;;;11.30;99.90;;;;;;10464681;28;20201;-79
2024/02/22 15:12:01;;;;;;;4.00;4.00;;;11.30;99.90;;;;;;10463026;28;20228;-78
2024/02/22 15:17:03;;;;;;;4.00;4.00;;;11.30;99.90;;;;;;10460832;28;20205;-78
2024/02/22 15:22:07;;;;;;;4.00;4.00;;;11.20;99.90;;;;;;10462375;28;20213;-78
2024/02/22 15:27:10;;;;;;;3.70;3.70;;;11.30;99.90;;;;;;10462639;28;20674;-78
2024/02/22 15:32:12;;;;;;;3.93;3.93;;;11.30;99.90;;;;;;10442773;28;20267;-78
2024/02/22 15:37:16;;;;;;;3.60;3.60;;;11.30;99.90;;;;;;10461080;28;20209;-78
2024/02/22 15:42:18;;;;;;;4.03;4.03;;;11.20;99.90;;;;;;10462037;28;20243;-78
2024/02/22 15:47:21;;;;;;;3.57;3.57;;;11.10;99.90;;;;;;10463209;28;20548;-79
2024/02/22 15:52:24;;;;;;;4.97;4.97;;;11.10;99.90;;;;;;10444409;28;20255;-79
2024/02/22 15:57:27;;;;;;;4.70;4.70;;;11.10;99.90;;;;;;10461433;28;20243;-78
2024/02/22 16:02:29;;;;;;;4.63;4.63;;;11.10;99.90;;;;;;10460839;28;20248;-78
2024/02/22 16:07:33;;;;;;;4.60;4.60;;;11.00;99.90;;;;;;10452757;28;20201;-78
2024/02/22 16:12:35;;;;;;;4.30;4.30;;;11.00;99.90;;;;;;10459926;28;20259;-78
2024/02/22 16:17:39;;;;;;;5.10;5.10;;;11.00;99.90;;;;;;10462176;28;20209;-78
2024/02/22 16:22:42;;;;;;;4.70;4.70;;;11.00;99.90;;;;;;10469119;28;20221;-78
2024/02/22 16:27:45;;;;;;;4.10;4.10;;;10.90;99.90;;;;;;10444971;28;20209;-78
2024/02/22 16:32:47;;;;;;;4.70;4.70;;;10.90;99.90;;;;;;10456416;28;20624;-78
2024/02/22 16:37:51;;;;;;;4.60;4.60;;;10.90;99.90;;;;;;10443846;28;20267;-77
2024/02/22 16:42:53;;;;;;;5.27;5.27;;;10.90;99.90;;;;;;10462330;28;20233;-78
2024/02/22 16:47:56;;;;;;;3.60;3.60;;;10.90;99.90;;;;;;10456861;28;20198;-77
2024/02/22 16:52:59;;;;;;;5.10;5.10;;;10.90;99.90;;;;;;10419727;28;20222;-77
2024/02/22 16:58:02;;;;;;;5.70;5.70;;;10.90;99.90;;;;;;10443239;28;20197;-78
2024/02/22 17:03:05;;;;;;;6.00;6.00;;;10.80;99.90;;;;;;10448247;28;20238;-78
2024/02/22 17:08:09;;;;;;;6.57;6.57;;;10.80;99.90;;;;;;10430940;28;20201;-78
2024/02/22 17:13:11;;;;;;;6.33;6.33;;;10.70;99.90;;;;;;10416394;28;20221;-78
2024/02/22 17:18:13;;;;;;;3.67;3.67;;;10.80;99.90;;;;;;10450673;28;20717;-78
2024/02/22 17:23:17;;;;;;;6.30;6.30;;;10.80;99.90;;;;;;10428536;28;20230;-78
2024/02/22 17:28:19;;;;;;;3.73;3.73;;;10.80;99.90;;;;;;10448317;28;20605;-79
2024/02/22 17:33:24;;;;;;;6.57;6.57;;;10.80;99.90;;;;;;10435437;28;20218;-77
2024/02/22 17:38:29;;;;;;;4.27;4.27;;;10.80;99.90;;;;;;10454757;28;20244;-79
2024/02/22 17:43:31;;;;;;;5.50;5.50;;;10.80;99.90;;;;;;10451512;28;20335;-79
2024/02/22 17:48:36;;;;;;;6.40;6.40;;;10.80;99.90;;;;;;10451129;28;20247;-79
2024/02/22 17:53:40;;;;;;;7.00;7.00;;;10.80;99.90;;;;;;10447231;28;20710;-79
2024/02/22 17:58:43;;;;;;;5.23;5.23;;;10.70;99.90;;;;;;10424988;28;20780;-79
2024/02/22 18:03:46;;;;;;;6.90;6.90;;;10.70;99.90;;;;;;10449090;28;20228;-79
2024/02/22 18:08:51;;;;;;;3.23;3.23;;;10.80;99.90;;;;;;10455642;28;20208;-79
2024/02/22 18:13:53;;;;;;;6.67;6.67;;;10.80;99.90;;;;;;10427963;28;20290;-79
2024/02/22 18:18:56;;;;;;;3.70;3.70;;;10.70;99.90;;;;;;10449407;28;20193;-78
2024/02/22 18:23:59;;;;;;;6.70;6.70;;;10.70;99.90;;;;;;10444530;28;20221;-79
2024/02/22 18:29:02;;;;;;;2.87;2.87;;;10.80;99.90;;;;;;10441385;28;20197;-79
2024/02/22 18:34:04;;;;;;;5.07;5.07;;;10.80;99.90;;;;;;10427432;28;20197;-79
2024/02/22 18:39:08;;;;;;;4.30;4.30;;;10.80;99.90;;;;;;10434859;28;20728;-77
2024/02/22 18:44:12;;;;;;;3.60;3.60;;;10.80;99.90;;;;;;10435725;28;20602;-77
2024/02/22 18:49:14;;;;;;;3.13;3.13;;;10.80;99.90;;;;;;10446727;28;20702;-77
2024/02/22 18:54:19;;;;;;;2.60;2.60;;;11.00;99.90;;;;;;10449955;28;20223;-77
2024/02/22 18:59:21;;;;;;;3.30;3.30;;;11.20;99.90;;;;;;10433653;28;20215;-77
2024/02/22 19:04:24;;;;;;;1.03;1.03;;;11.30;99.90;;;;;;10424965;28;20247;-77
2024/02/22 19:09:28;;;;;;;1.97;1.97;;;11.50;99.90;;;;;;10441103;28;20213;-77
2024/02/22 19:14:30;;;;;;;2.00;2.00;;;11.60;99.90;;;;;;10445865;28;20259;-77
2024/02/22 19:19:32;;;;;;;1.00;1.00;;;11.70;99.90;;;;;;10458291;28;20244;-78
2024/02/22 19:24:37;;;;;;;2.17;2.17;;;11.80;99.90;;;;;;10456121;28;20628;-77
2024/02/22 19:29:41;;;;;;;1.80;1.80;;;11.90;99.90;;;;;;10439622;28;20280;-76
2024/02/22 19:34:43;;;;;;;1.87;1.87;;;11.90;99.90;;;;;;10449116;28;20220;-77
2024/02/22 19:39:53;;;;;;;0.43;0.43;;;12.00;99.90;;;;;;10442764;28;20248;-77
2024/02/22 19:44:55;;;;;;;1.60;1.60;;;12.00;99.90;;;;;;10450890;28;20233;-78
2024/02/22 19:49:58;;;;;;;1.50;1.50;;;12.10;99.90;;;;;;10438404;28;20660;-77
2024/02/22 19:55:03;;;;;;;1.40;1.40;;;12.20;99.90;;;;;;10451517;28;20243;-77
2024/02/22 20:00:06;;;;;;;1.20;1.20;;;12.20;99.90;;;;;;10436140;28;20259;-77
2024/02/22 20:05:14;;;;;;;1.60;1.60;;;12.30;99.90;;;;;;10432432;28;20332;-76
2024/02/22 20:10:19;;;;;;;1.90;1.90;;;12.10;99.90;;;;;;10446832;28;20221;-77
2024/02/22 20:15:21;;;;;;;1.60;1.60;;;11.90;99.90;;;;;;10450895;28;20201;-76
2024/02/22 20:20:24;;;;;;;1.83;1.83;;;11.70;99.90;;;;;;10452022;28;20209;-77
2024/02/22 20:25:28;;;;;;;2.47;2.47;;;11.60;99.90;;;;;;10449483;28;20205;-77
2024/02/22 20:30:30;;;;;;;3.70;3.70;;;11.50;99.90;;;;;;10443514;28;20228;-77
2024/02/22 20:35:32;;;;;;;3.70;3.70;;;11.50;99.90;;;;;;10442758;28;20204;-77
2024/02/22 20:40:36;;;;;;;3.30;3.30;;;11.50;99.90;;;;;;10427608;28;20225;-77
2024/02/22 20:45:38;;;;;;;3.30;3.30;;;11.40;99.90;;;;;;10442513;28;20251;-77
2024/02/22 20:50:41;;;;;;;3.60;3.60;;;11.30;99.90;;;;;;10424647;28;20225;-76
2024/02/22 20:55:45;;;;;;;3.40;3.40;;;11.20;99.90;;;;;;10444307;28;20208;-77
2024/02/22 21:00:47;;;;;;;3.10;3.10;;;11.00;99.90;;;;;;10449335;28;20225;-78
2024/02/22 21:05:50;;;;;;;2.70;2.70;;;10.90;99.90;;;;;;10448391;28;20214;-77
2024/02/22 21:10:57;;;;;;;2.90;2.90;;;10.70;99.90;;;;;;10436114;28;20228;-78
2024/02/22 21:15:59;;;;;;;2.70;2.70;;;10.50;99.90;;;;;;10445503;28;20208;-78
2024/02/22 21:21:03;;;;;;;2.40;2.40;;;10.40;99.90;;;;;;10451094;28;20271;-78
2024/02/22 21:26:07;;;;;;;2.13;2.13;;;10.30;99.90;;;;;;10450633;28;20268;-78
2024/02/22 21:31:10;;;;;;;1.50;1.50;;;10.40;99.90;;;;;;10422064;28;20208;-78
2024/02/22 21:36:14;;;;;;;1.70;1.70;;;10.40;99.90;;;;;;10439709;28;20205;-79
2024/02/22 21:41:18;;;;;;;1.50;1.50;;;10.50;99.90;;;;;;10445918;28;20236;-78
2024/02/22 21:46:21;;;;;;;1.33;1.33;;;10.50;99.90;;;;;;10424271;28;20667;-79
2024/02/22 21:51:24;;;;;;;1.40;1.40;;;10.60;99.90;;;;;;10436201;28;20228;-78
2024/02/22 21:56:27;;;;;;;1.10;1.10;;;10.60;99.90;;;;;;10440836;28;20200;-78
2024/02/22 22:01:31;;;;;;;1.10;1.10;;;10.70;99.90;;;;;;10436045;28;20275;-79
2024/02/22 22:06:33;;;;;;;1.20;1.20;;;10.70;99.90;;;;;;10436583;28;20680;-81
2024/02/22 22:11:37;;;;;;;1.20;1.20;;;10.70;99.90;;;;;;10447584;28;20217;-81
2024/02/22 22:16:40;;;;;;;0.63;0.63;;;10.70;99.90;;;;;;10438932;28;20204;-81
2024/02/22 22:21:42;;;;;;;1.10;1.10;;;10.70;99.90;;;;;;10444418;28;20232;-81
2024/02/22 22:26:46;;;;;;;0.90;0.90;;;10.80;99.90;;;;;;10454582;28;20627;-81
2024/02/22 22:31:48;;;;;;;1.00;1.00;;;10.80;99.90;;;;;;10416796;28;20206;-82
2024/02/22 22:36:50;;;;;;;0.80;0.80;;;10.80;99.90;;;;;;10431612;28;20205;-81
2024/02/22 22:41:56;;;;;;;1.10;1.10;;;10.80;99.90;;;;;;10450225;28;20225;-81
2024/02/22 22:46:59;;;;;;;1.10;1.10;;;10.80;99.90;;;;;;10441670;28;20557;-81
2024/02/22 22:52:02;;;;;;;1.03;1.03;;;10.70;99.90;;;;;;10423596;28;20247;-81
2024/02/22 22:57:06;;;;;;;0.90;0.90;;;10.60;99.90;;;;;;10446947;28;20201;-82
2024/02/22 23:02:09;;;;;;;1.00;1.00;;;10.40;99.90;;;;;;10480414;28;20217;-81
2024/02/22 23:07:11;;;;;;;0.90;0.90;;;10.20;99.90;;;;;;10468289;28;20235;-82
2024/02/22 23:12:15;;;;;;;1.10;1.10;;;9.90;99.90;;;;;;10461875;28;20396;-81
2024/02/22 23:17:17;;;;;;;1.20;1.20;;;9.70;99.90;;;;;;10467940;28;20209;-81
2024/02/22 23:22:20;;;;;;;1.10;1.10;;;9.40;99.90;;;;;;10479004;28;20312;-81
2024/02/22 23:27:23;;;;;;;1.17;1.17;;;9.10;99.90;;;;;;10473389;28;20197;-81
2024/02/22 23:32:26;;;;;;;0.80;0.80;;;8.90;99.90;;;;;;10469490;28;20209;-81
2024/02/22 23:37:28;;;;;;;1.20;1.20;;;8.80;99.90;;;;;;10478062;28;20202;-80
2024/02/22 23:42:32;;;;;;;0.90;0.90;;;8.70;99.90;;;;;;10481707;28;20594;-81
2024/02/22 23:47:34;;;;;;;0.70;0.70;;;8.70;99.90;;;;;;10487851;28;20484;-81
2024/02/22 23:52:37;;;;;;;1.10;1.10;;;8.60;99.90;;;;;;10464814;28;20224;-81
2024/02/22 23:57:40;;;;;;;0.70;0.70;;;8.60;99.90;;;;;;10448957;28;20224;-80
